sensor_id;sensor_type;location;lat;lon;timestamp;temperature;humidity
55008;DHT22;40902;45.116;21.296;2022-11-30T00:02:23;179.50;2252.80
55008;DHT22;40902;45.116;21.296;2022-11-30T00:04:49;179.50;2252.80
55008;DHT22;40902;45.116;21.296;2022-11-30T00:07:15;179.50;2252.80
55008;DHT22;40902;45.116;21.296;2022-11-30T00:09:40;179.40;2252.80
55008;DHT22;40902;45.116;21.296;2022-11-30T00:12:06;179.40;2252.80
55008;DHT22;40902;45.116;21.296;2022-11-30T00:14:32;179.40;2252.80
55008;DHT22;40902;45.116;21.296;2022-11-30T00:16:58;179.50;2252.80
55008;DHT22;40902;45.116;21.296;2022-11-30T00:19:23;179.60;2252.80
55008;DHT22;40902;45.116;21.296;2022-11-30T00:21:49;179.60;2252.80
55008;DHT22;40902;45.116;21.296;2022-11-30T00:24:15;179.50;2252.80
55008;DHT22;40902;45.116;21.296;2022-11-30T00:26:40;179.60;2252.80
55008;DHT22;40902;45.116;21.296;2022-11-30T00:29:06;179.80;2252.80
55008;DHT22;40902;45.116;21.296;2022-11-30T00:31:32;179.80;2252.80
55008;DHT22;40902;45.116;21.296;2022-11-30T00:33:57;179.80;2252.80
55008;DHT22;40902;45.116;21.296;2022-11-30T00:36:23;179.80;2252.80
55008;DHT22;40902;45.116;21.296;2022-11-30T00:38:50;179.80;2252.80
55008;DHT22;40902;45.116;21.296;2022-11-30T00:41:17;179.80;2252.80
55008;DHT22;40902;45.116;21.296;2022-11-30T00:43:43;179.80;2252.80
55008;DHT22;40902;45.116;21.296;2022-11-30T00:46:09;179.70;2252.80
55008;DHT22;40902;45.116;21.296;2022-11-30T00:48:35;179.70;2252.80
55008;DHT22;40902;45.116;21.296;2022-11-30T00:51:01;179.80;2252.80
55008;DHT22;40902;45.116;21.296;2022-11-30T00:53:27;179.80;2252.80
55008;DHT22;40902;45.116;21.296;2022-11-30T00:55:53;179.90;2252.80
55008;DHT22;40902;45.116;21.296;2022-11-30T00:58:18;179.90;2252.80
55008;DHT22;40902;45.116;21.296;2022-11-30T01:00:45;179.80;2252.80
55008;DHT22;40902;45.116;21.296;2022-11-30T01:03:11;179.80;2252.80
55008;DHT22;40902;45.116;21.296;2022-11-30T01:05:37;179.80;2252.80
55008;DHT22;40902;45.116;21.296;2022-11-30T01:08:05;179.80;2252.80
55008;DHT22;40902;45.116;21.296;2022-11-30T01:10:33;179.70;2252.80
55008;DHT22;40902;45.116;21.296;2022-11-30T01:12:59;179.80;2252.80
55008;DHT22;40902;45.116;21.296;2022-11-30T01:15:25;179.90;2252.80
55008;DHT22;40902;45.116;21.296;2022-11-30T01:17:51;179.90;2252.80
55008;DHT22;40902;45.116;21.296;2022-11-30T01:20:17;180.00;2252.80
55008;DHT22;40902;45.116;21.296;2022-11-30T01:22:43;180.00;2252.80
55008;DHT22;40902;45.116;21.296;2022-11-30T01:25:08;180.00;2252.80
55008;DHT22;40902;45.116;21.296;2022-11-30T01:27:34;180.10;2252.80
55008;DHT22;40902;45.116;21.296;2022-11-30T01:30:00;204.80;2252.80
55008;DHT22;40902;45.116;21.296;2022-11-30T01:32:26;204.80;2252.80
55008;DHT22;40902;45.116;21.296;2022-11-30T01:34:52;204.90;2252.80
55008;DHT22;40902;45.116;21.296;2022-11-30T01:37:18;205.00;2252.80
55008;DHT22;40902;45.116;21.296;2022-11-30T01:39:43;205.00;2252.80
55008;DHT22;40902;45.116;21.296;2022-11-30T01:42:16;205.10;2252.80
55008;DHT22;40902;45.116;21.296;2022-11-30T01:44:52;205.10;2252.80
55008;DHT22;40902;45.116;21.296;2022-11-30T01:47:23;205.20;2252.80
55008;DHT22;40902;45.116;21.296;2022-11-30T01:49:56;205.10;2252.80
55008;DHT22;40902;45.116;21.296;2022-11-30T01:52:37;205.20;2252.80
55008;DHT22;40902;45.116;21.296;2022-11-30T01:57:52;205.30;2252.80
55008;DHT22;40902;45.116;21.296;2022-11-30T02:00:19;205.40;2252.80
55008;DHT22;40902;45.116;21.296;2022-11-30T02:05:48;205.50;2252.80
55008;DHT22;40902;45.116;21.296;2022-11-30T02:08:14;205.50;2252.80
55008;DHT22;40902;45.116;21.296;2022-11-30T02:10:42;205.50;2252.80
55008;DHT22;40902;45.116;21.296;2022-11-30T02:19:00;205.50;2252.80
55008;DHT22;40902;45.116;21.296;2022-11-30T02:21:50;205.50;2252.80
55008;DHT22;40902;45.116;21.296;2022-11-30T02:32:27;205.40;2252.80
55008;DHT22;40902;45.116;21.296;2022-11-30T02:34:55;205.30;2252.80
55008;DHT22;40902;45.116;21.296;2022-11-30T02:37:24;205.30;2252.80
55008;DHT22;40902;45.116;21.296;2022-11-30T02:39:50;205.20;2252.80
55008;DHT22;40902;45.116;21.296;2022-11-30T02:42:15;205.20;2252.80
55008;DHT22;40902;45.116;21.296;2022-11-30T02:44:46;205.20;2252.80
55008;DHT22;40902;45.116;21.296;2022-11-30T02:47:33;205.20;2252.80
55008;DHT22;40902;45.116;21.296;2022-11-30T02:51:08;205.20;2252.80
55008;DHT22;40902;45.116;21.296;2022-11-30T02:53:02;205.20;2252.80
55008;DHT22;40902;45.116;21.296;2022-11-30T02:55:28;205.20;2252.80
55008;DHT22;40902;45.116;21.296;2022-11-30T02:57:56;205.10;2252.80
55008;DHT22;40902;45.116;21.296;2022-11-30T03:00:22;205.10;2252.80
55008;DHT22;40902;45.116;21.296;2022-11-30T03:02:47;205.00;2252.80
55008;DHT22;40902;45.116;21.296;2022-11-30T03:05:14;204.90;2252.80
55008;DHT22;40902;45.116;21.296;2022-11-30T03:07:39;204.80;2252.80
55008;DHT22;40902;45.116;21.296;2022-11-30T03:10:06;180.10;2252.80
55008;DHT22;40902;45.116;21.296;2022-11-30T03:12:32;180.00;2252.80
55008;DHT22;40902;45.116;21.296;2022-11-30T03:14:57;180.00;2252.80
55008;DHT22;40902;45.116;21.296;2022-11-30T03:17:23;179.90;2252.80
55008;DHT22;40902;45.116;21.296;2022-11-30T03:19:49;179.90;2252.80
55008;DHT22;40902;45.116;21.296;2022-11-30T03:22:14;179.90;2252.80
55008;DHT22;40902;45.116;21.296;2022-11-30T03:24:40;180.00;2252.80
55008;DHT22;40902;45.116;21.296;2022-11-30T03:27:06;180.00;2252.80
55008;DHT22;40902;45.116;21.296;2022-11-30T03:29:31;180.00;2252.80
55008;DHT22;40902;45.116;21.296;2022-11-30T03:31:57;180.00;2252.80
55008;DHT22;40902;45.116;21.296;2022-11-30T03:34:23;180.00;2252.80
55008;DHT22;40902;45.116;21.296;2022-11-30T03:36:51;179.90;2252.80
55008;DHT22;40902;45.116;21.296;2022-11-30T03:39:16;179.80;2252.80
55008;DHT22;40902;45.116;21.296;2022-11-30T03:41:42;179.70;2252.80
55008;DHT22;40902;45.116;21.296;2022-11-30T03:44:08;179.70;2252.80
55008;DHT22;40902;45.116;21.296;2022-11-30T03:46:33;179.70;2252.80
55008;DHT22;40902;45.116;21.296;2022-11-30T03:48:59;179.70;2252.80
55008;DHT22;40902;45.116;21.296;2022-11-30T03:51:25;179.60;2252.80
55008;DHT22;40902;45.116;21.296;2022-11-30T03:53:51;179.50;2252.80
55008;DHT22;40902;45.116;21.296;2022-11-30T03:56:16;179.60;2252.80
55008;DHT22;40902;45.116;21.296;2022-11-30T03:58:42;179.70;2252.80
55008;DHT22;40902;45.116;21.296;2022-11-30T04:03:36;179.90;2252.80
55008;DHT22;40902;45.116;21.296;2022-11-30T04:06:03;179.90;2252.80
55008;DHT22;40902;45.116;21.296;2022-11-30T04:08:30;180.00;2252.80
55008;DHT22;40902;45.116;21.296;2022-11-30T04:10:58;180.00;2252.80
55008;DHT22;40902;45.116;21.296;2022-11-30T04:13:24;180.00;2252.80
55008;DHT22;40902;45.116;21.296;2022-11-30T04:15:51;180.00;2252.80
55008;DHT22;40902;45.116;21.296;2022-11-30T04:18:19;180.00;2252.80
55008;DHT22;40902;45.116;21.296;2022-11-30T04:20:45;180.00;2252.80
55008;DHT22;40902;45.116;21.296;2022-11-30T04:23:11;180.00;2252.80
55008;DHT22;40902;45.116;21.296;2022-11-30T04:25:39;180.00;2252.80
55008;DHT22;40902;45.116;21.296;2022-11-30T04:28:04;180.00;2252.80
55008;DHT22;40902;45.116;21.296;2022-11-30T04:30:32;180.00;2252.80
55008;DHT22;40902;45.116;21.296;2022-11-30T04:32:59;180.00;2252.80
55008;DHT22;40902;45.116;21.296;2022-11-30T04:35:25;180.00;2252.80
55008;DHT22;40902;45.116;21.296;2022-11-30T04:37:51;180.00;2252.80
55008;DHT22;40902;45.116;21.296;2022-11-30T04:40:16;180.00;2252.80
55008;DHT22;40902;45.116;21.296;2022-11-30T04:42:42;180.00;2252.80
55008;DHT22;40902;45.116;21.296;2022-11-30T04:45:08;179.90;2252.80
55008;DHT22;40902;45.116;21.296;2022-11-30T04:47:34;179.90;2252.80
55008;DHT22;40902;45.116;21.296;2022-11-30T04:50:00;179.90;2252.80
55008;DHT22;40902;45.116;21.296;2022-11-30T04:52:26;179.90;2252.80
55008;DHT22;40902;45.116;21.296;2022-11-30T04:54:51;179.90;2252.80
55008;DHT22;40902;45.116;21.296;2022-11-30T04:57:17;179.90;2252.80
55008;DHT22;40902;45.116;21.296;2022-11-30T04:59:43;180.00;2252.80
55008;DHT22;40902;45.116;21.296;2022-11-30T05:02:10;180.00;2252.80
55008;DHT22;40902;45.116;21.296;2022-11-30T05:04:36;180.00;2252.80
55008;DHT22;40902;45.116;21.296;2022-11-30T05:07:02;180.00;2252.80
55008;DHT22;40902;45.116;21.296;2022-11-30T05:09:28;180.00;2252.80
55008;DHT22;40902;45.116;21.296;2022-11-30T05:11:53;180.00;2252.80
55008;DHT22;40902;45.116;21.296;2022-11-30T05:14:19;180.10;2252.80
55008;DHT22;40902;45.116;21.296;2022-11-30T05:16:48;180.10;2252.80
55008;DHT22;40902;45.116;21.296;2022-11-30T05:19:14;180.10;2252.80
55008;DHT22;40902;45.116;21.296;2022-11-30T05:21:41;180.10;2252.80
55008;DHT22;40902;45.116;21.296;2022-11-30T05:24:07;180.10;2252.80
55008;DHT22;40902;45.116;21.296;2022-11-30T05:26:34;204.80;2252.80
55008;DHT22;40902;45.116;21.296;2022-11-30T05:29:02;204.80;2252.80
55008;DHT22;40902;45.116;21.296;2022-11-30T05:31:28;204.80;2252.80
55008;DHT22;40902;45.116;21.296;2022-11-30T05:33:53;204.90;2252.80
55008;DHT22;40902;45.116;21.296;2022-11-30T05:36:20;204.90;2252.80
55008;DHT22;40902;45.116;21.296;2022-11-30T05:38:46;204.90;2252.80
55008;DHT22;40902;45.116;21.296;2022-11-30T05:41:12;205.00;2252.80
55008;DHT22;40902;45.116;21.296;2022-11-30T05:43:38;205.10;2252.80
55008;DHT22;40902;45.116;21.296;2022-11-30T05:46:05;205.20;2252.80
55008;DHT22;40902;45.116;21.296;2022-11-30T05:48:31;205.30;2252.80
55008;DHT22;40902;45.116;21.296;2022-11-30T05:51:04;205.40;2252.80
55008;DHT22;40902;45.116;21.296;2022-11-30T05:53:31;205.50;2252.80
55008;DHT22;40902;45.116;21.296;2022-11-30T05:56:07;205.50;2252.80
55008;DHT22;40902;45.116;21.296;2022-11-30T05:58:33;205.60;2252.80
55008;DHT22;40902;45.116;21.296;2022-11-30T06:00:59;205.60;2252.80
55008;DHT22;40902;45.116;21.296;2022-11-30T06:03:26;205.60;2252.80
55008;DHT22;40902;45.116;21.296;2022-11-30T06:05:52;205.60;2252.80
55008;DHT22;40902;45.116;21.296;2022-11-30T06:08:18;205.70;2252.80
55008;DHT22;40902;45.116;21.296;2022-11-30T06:10:44;205.70;2252.80
55008;DHT22;40902;45.116;21.296;2022-11-30T06:13:10;230.40;2252.80
55008;DHT22;40902;45.116;21.296;2022-11-30T06:15:37;230.40;2252.80
55008;DHT22;40902;45.116;21.296;2022-11-30T06:18:03;230.40;2252.80
55008;DHT22;40902;45.116;21.296;2022-11-30T06:20:29;205.70;2252.80
55008;DHT22;40902;45.116;21.296;2022-11-30T06:22:55;230.40;2252.80
55008;DHT22;40902;45.116;21.296;2022-11-30T06:25:22;230.40;2252.80
55008;DHT22;40902;45.116;21.296;2022-11-30T06:27:48;205.70;2252.80
55008;DHT22;40902;45.116;21.296;2022-11-30T06:30:14;205.70;2252.80
55008;DHT22;40902;45.116;21.296;2022-11-30T06:32:46;205.70;2252.80
55008;DHT22;40902;45.116;21.296;2022-11-30T06:35:12;205.70;2252.80
55008;DHT22;40902;45.116;21.296;2022-11-30T06:37:39;205.70;2252.80
55008;DHT22;40902;45.116;21.296;2022-11-30T06:40:05;205.70;2252.80
55008;DHT22;40902;45.116;21.296;2022-11-30T06:42:31;205.70;2252.80
55008;DHT22;40902;45.116;21.296;2022-11-30T06:44:57;205.70;2252.80
55008;DHT22;40902;45.116;21.296;2022-11-30T06:47:23;205.70;2252.80
55008;DHT22;40902;45.116;21.296;2022-11-30T06:49:49;205.70;2252.80
55008;DHT22;40902;45.116;21.296;2022-11-30T06:52:14;230.40;2252.80
55008;DHT22;40902;45.116;21.296;2022-11-30T06:54:40;230.40;2252.80
55008;DHT22;40902;45.116;21.296;2022-11-30T06:57:06;230.40;2252.80
55008;DHT22;40902;45.116;21.296;2022-11-30T06:59:32;230.50;2252.80
55008;DHT22;40902;45.116;21.296;2022-11-30T07:01:57;230.50;2252.80
55008;DHT22;40902;45.116;21.296;2022-11-30T07:04:24;230.50;2252.80
55008;DHT22;40902;45.116;21.296;2022-11-30T07:06:49;230.50;2252.80
55008;DHT22;40902;45.116;21.296;2022-11-30T07:09:15;230.60;2252.80
55008;DHT22;40902;45.116;21.296;2022-11-30T07:11:41;230.70;2252.80
55008;DHT22;40902;45.116;21.296;2022-11-30T07:14:07;230.70;2252.80
55008;DHT22;40902;45.116;21.296;2022-11-30T07:16:33;230.80;2252.80
55008;DHT22;40902;45.116;21.296;2022-11-30T07:18:58;230.90;2252.80
55008;DHT22;40902;45.116;21.296;2022-11-30T07:21:24;230.90;2252.80
55008;DHT22;40902;45.116;21.296;2022-11-30T07:23:50;231.00;2252.80
55008;DHT22;40902;45.116;21.296;2022-11-30T07:26:34;231.00;2252.80
55008;DHT22;40902;45.116;21.296;2022-11-30T07:28:59;231.00;2252.80
55008;DHT22;40902;45.116;21.296;2022-11-30T07:33:51;231.10;2252.80
55008;DHT22;40902;45.116;21.296;2022-11-30T07:36:19;231.10;2252.80
55008;DHT22;40902;45.116;21.296;2022-11-30T07:38:45;231.10;2252.80
55008;DHT22;40902;45.116;21.296;2022-11-30T07:41:11;231.20;2252.80
55008;DHT22;40902;45.116;21.296;2022-11-30T07:43:37;231.20;2252.80
55008;DHT22;40902;45.116;21.296;2022-11-30T07:46:04;231.30;2252.80
55008;DHT22;40902;45.116;21.296;2022-11-30T07:48:30;231.30;2252.80
55008;DHT22;40902;45.116;21.296;2022-11-30T07:51:06;231.30;2252.80
55008;DHT22;40902;45.116;21.296;2022-11-30T07:53:33;231.30;2252.80
55008;DHT22;40902;45.116;21.296;2022-11-30T07:56:07;231.30;2252.80
55008;DHT22;40902;45.116;21.296;2022-11-30T07:58:33;256.00;2252.80
55008;DHT22;40902;45.116;21.296;2022-11-30T08:01:03;256.00;2252.80
55008;DHT22;40902;45.116;21.296;2022-11-30T08:03:29;256.10;2252.80
55008;DHT22;40902;45.116;21.296;2022-11-30T08:06:16;256.10;2252.80
55008;DHT22;40902;45.116;21.296;2022-11-30T08:08:44;256.10;2252.80
55008;DHT22;40902;45.116;21.296;2022-11-30T08:11:13;256.20;2252.80
55008;DHT22;40902;45.116;21.296;2022-11-30T08:13:39;256.30;2252.80
55008;DHT22;40902;45.116;21.296;2022-11-30T08:18:34;256.40;2252.80
55008;DHT22;40902;45.116;21.296;2022-11-30T08:21:02;256.40;2252.80
55008;DHT22;40902;45.116;21.296;2022-11-30T08:23:38;256.50;2252.80
55008;DHT22;40902;45.116;21.296;2022-11-30T08:26:06;256.50;2252.80
55008;DHT22;40902;45.116;21.296;2022-11-30T08:28:33;256.60;2252.80
55008;DHT22;40902;45.116;21.296;2022-11-30T08:31:05;256.60;2252.80
55008;DHT22;40902;45.116;21.296;2022-11-30T08:33:32;256.70;2252.80
55008;DHT22;40902;45.116;21.296;2022-11-30T08:36:15;256.80;2252.80
55008;DHT22;40902;45.116;21.296;2022-11-30T08:38:43;256.80;2252.80
55008;DHT22;40902;45.116;21.296;2022-11-30T08:41:11;256.80;2252.80
55008;DHT22;40902;45.116;21.296;2022-11-30T08:43:38;256.80;2252.80
55008;DHT22;40902;45.116;21.296;2022-11-30T08:46:05;256.80;2252.80
55008;DHT22;40902;45.116;21.296;2022-11-30T08:48:33;256.80;2252.80
55008;DHT22;40902;45.116;21.296;2022-11-30T08:51:03;256.80;2252.80
55008;DHT22;40902;45.116;21.296;2022-11-30T08:53:30;256.80;2252.80
55008;DHT22;40902;45.116;21.296;2022-11-30T08:56:01;256.80;2252.80
55008;DHT22;40902;45.116;21.296;2022-11-30T08:58:30;256.90;2252.80
55008;DHT22;40902;45.116;21.296;2022-11-30T09:01:07;256.90;2252.80
55008;DHT22;40902;45.116;21.296;2022-11-30T09:03:33;256.90;2252.80
55008;DHT22;40902;45.116;21.296;2022-11-30T09:06:07;256.90;2252.80
55008;DHT22;40902;45.116;21.296;2022-11-30T09:08:33;256.90;2252.80
55008;DHT22;40902;45.116;21.296;2022-11-30T09:11:11;281.60;2278.40
55008;DHT22;40902;45.116;21.296;2022-11-30T09:13:37;281.60;2278.40
55008;DHT22;40902;45.116;21.296;2022-11-30T09:16:04;281.60;2278.40
55008;DHT22;40902;45.116;21.296;2022-11-30T09:18:30;281.70;2278.40
55008;DHT22;40902;45.116;21.296;2022-11-30T09:21:04;281.70;2278.40
55008;DHT22;40902;45.116;21.296;2022-11-30T09:23:30;281.80;2278.40
55008;DHT22;40902;45.116;21.296;2022-11-30T09:25:58;281.80;2278.40
55008;DHT22;40902;45.116;21.296;2022-11-30T09:28:25;281.90;2278.40
55008;DHT22;40902;45.116;21.296;2022-11-30T09:30:52;281.90;2278.40
55008;DHT22;40902;45.116;21.296;2022-11-30T09:33:18;281.90;2278.40
55008;DHT22;40902;45.116;21.296;2022-11-30T09:35:54;282.00;2278.40
55008;DHT22;40902;45.116;21.296;2022-11-30T09:38:20;282.00;2278.40
55008;DHT22;40902;45.116;21.296;2022-11-30T09:41:17;282.00;2278.40
55008;DHT22;40902;45.116;21.296;2022-11-30T09:46:11;282.00;2278.40
55008;DHT22;40902;45.116;21.296;2022-11-30T09:48:57;282.10;2278.40
55008;DHT22;40902;45.116;21.296;2022-11-30T09:51:50;282.10;2278.40
55008;DHT22;40902;45.116;21.296;2022-11-30T09:54:30;282.10;2278.40
55008;DHT22;40902;45.116;21.296;2022-11-30T09:57:22;282.10;2278.40
55008;DHT22;40902;45.116;21.296;2022-11-30T10:00:04;282.00;2278.40
55008;DHT22;40902;45.116;21.296;2022-11-30T10:02:32;282.00;2278.40
55008;DHT22;40902;45.116;21.296;2022-11-30T10:05:00;282.00;2278.40
55008;DHT22;40902;45.116;21.296;2022-11-30T10:10:38;281.90;2278.40
55008;DHT22;40902;45.116;21.296;2022-11-30T10:26:36;281.70;2278.40
55008;DHT22;40902;45.116;21.296;2022-11-30T10:29:11;281.70;2278.40
55008;DHT22;40902;45.116;21.296;2022-11-30T10:31:40;281.60;2278.40
55008;DHT22;40902;45.116;21.296;2022-11-30T10:36:41;281.60;2278.40
55008;DHT22;40902;45.116;21.296;2022-11-30T10:39:36;281.60;2278.40
55008;DHT22;40902;45.116;21.296;2022-11-30T10:44:39;281.70;2278.40
55008;DHT22;40902;45.116;21.296;2022-11-30T10:47:20;281.80;2278.40
55008;DHT22;40902;45.116;21.296;2022-11-30T10:49:51;281.80;2278.40
55008;DHT22;40902;45.116;21.296;2022-11-30T10:52:29;281.90;2278.40
55008;DHT22;40902;45.116;21.296;2022-11-30T10:54:56;281.90;2278.40
55008;DHT22;40902;45.116;21.296;2022-11-30T10:57:26;281.90;2278.40
55008;DHT22;40902;45.116;21.296;2022-11-30T10:59:54;282.00;2278.40
55008;DHT22;40902;45.116;21.296;2022-11-30T11:02:34;282.00;2278.40
55008;DHT22;40902;45.116;21.296;2022-11-30T11:05:21;282.00;2278.40
55008;DHT22;40902;45.116;21.296;2022-11-30T11:08:17;282.00;2278.40
55008;DHT22;40902;45.116;21.296;2022-11-30T11:10:46;282.10;2278.40
55008;DHT22;40902;45.116;21.296;2022-11-30T11:13:36;282.10;2278.40
55008;DHT22;40902;45.116;21.296;2022-11-30T11:16:05;282.10;2278.40
55008;DHT22;40902;45.116;21.296;2022-11-30T11:18:32;282.20;2278.40
55008;DHT22;40902;45.116;21.296;2022-11-30T11:21:04;282.20;2278.40
55008;DHT22;40902;45.116;21.296;2022-11-30T11:23:39;282.20;2278.40
55008;DHT22;40902;45.116;21.296;2022-11-30T11:26:13;282.20;2278.40
55008;DHT22;40902;45.116;21.296;2022-11-30T11:28:44;282.20;2278.40
55008;DHT22;40902;45.116;21.296;2022-11-30T11:33:53;282.20;2278.40
55008;DHT22;40902;45.116;21.296;2022-11-30T11:36:27;282.20;2278.40
55008;DHT22;40902;45.116;21.296;2022-11-30T11:38:53;282.30;2278.40
55008;DHT22;40902;45.116;21.296;2022-11-30T11:41:34;282.30;2278.40
55008;DHT22;40902;45.116;21.296;2022-11-30T11:46:32;282.30;2278.40
55008;DHT22;40902;45.116;21.296;2022-11-30T11:49:08;282.30;2278.40
55008;DHT22;40902;45.116;21.296;2022-11-30T11:51:42;282.30;2278.40
55008;DHT22;40902;45.116;21.296;2022-11-30T11:56:57;282.30;2278.40
55008;DHT22;40902;45.116;21.296;2022-11-30T12:04:54;282.30;2278.40
55008;DHT22;40902;45.116;21.296;2022-11-30T12:12:58;282.40;2278.40
55008;DHT22;40902;45.116;21.296;2022-11-30T12:15:39;282.50;2278.40
55008;DHT22;40902;45.116;21.296;2022-11-30T12:18:24;282.50;2278.40
55008;DHT22;40902;45.116;21.296;2022-11-30T12:20:55;282.50;2278.40
55008;DHT22;40902;45.116;21.296;2022-11-30T12:31:58;307.20;2304.00
55008;DHT22;40902;45.116;21.296;2022-11-30T12:34:47;307.20;2304.00
55008;DHT22;40902;45.116;21.296;2022-11-30T12:37:17;307.20;2304.00
55008;DHT22;40902;45.116;21.296;2022-11-30T12:44:59;282.50;2278.40
55008;DHT22;40902;45.116;21.296;2022-11-30T12:47:48;282.50;2278.40
55008;DHT22;40902;45.116;21.296;2022-11-30T13:06:23;282.30;2278.40
55008;DHT22;40902;45.116;21.296;2022-11-30T13:11:35;282.30;2278.40
55008;DHT22;40902;45.116;21.296;2022-11-30T13:14:11;282.30;2278.40
55008;DHT22;40902;45.116;21.296;2022-11-30T13:16:37;282.40;2278.40
55008;DHT22;40902;45.116;21.296;2022-11-30T13:21:56;282.30;2278.40
55008;DHT22;40902;45.116;21.296;2022-11-30T13:24:31;282.30;2278.40
55008;DHT22;40902;45.116;21.296;2022-11-30T13:27:19;282.30;2278.40
55008;DHT22;40902;45.116;21.296;2022-11-30T13:30:37;282.30;2278.40
55008;DHT22;40902;45.116;21.296;2022-11-30T13:32:38;282.30;2278.40
55008;DHT22;40902;45.116;21.296;2022-11-30T13:38:03;282.30;2278.40
55008;DHT22;40902;45.116;21.296;2022-11-30T13:40:30;282.20;2278.40
55008;DHT22;40902;45.116;21.296;2022-11-30T13:42:56;282.20;2278.40
55008;DHT22;40902;45.116;21.296;2022-11-30T13:45:32;282.20;2278.40
55008;DHT22;40902;45.116;21.296;2022-11-30T13:48:17;282.20;2278.40
55008;DHT22;40902;45.116;21.296;2022-11-30T13:50:46;282.20;2278.40
55008;DHT22;40902;45.116;21.296;2022-11-30T13:53:25;282.10;2278.40
55008;DHT22;40902;45.116;21.296;2022-11-30T13:58:22;282.10;2278.40
55008;DHT22;40902;45.116;21.296;2022-11-30T14:01:20;282.00;2278.40
55008;DHT22;40902;45.116;21.296;2022-11-30T14:06:51;282.10;2278.40
55008;DHT22;40902;45.116;21.296;2022-11-30T14:15:25;282.00;2278.40
55008;DHT22;40902;45.116;21.296;2022-11-30T14:17:54;282.10;2278.40
55008;DHT22;40902;45.116;21.296;2022-11-30T14:20:23;282.00;2278.40
55008;DHT22;40902;45.116;21.296;2022-11-30T14:22:52;282.00;2278.40
55008;DHT22;40902;45.116;21.296;2022-11-30T14:25:20;282.00;2278.40
55008;DHT22;40902;45.116;21.296;2022-11-30T14:27:48;282.00;2278.40
55008;DHT22;40902;45.116;21.296;2022-11-30T14:30:20;282.00;2278.40
55008;DHT22;40902;45.116;21.296;2022-11-30T14:33:02;282.00;2278.40
55008;DHT22;40902;45.116;21.296;2022-11-30T14:35:30;282.00;2278.40
55008;DHT22;40902;45.116;21.296;2022-11-30T14:37:57;281.90;2278.40
55008;DHT22;40902;45.116;21.296;2022-11-30T14:40:26;281.90;2278.40
55008;DHT22;40902;45.116;21.296;2022-11-30T14:43:01;281.80;2278.40
55008;DHT22;40902;45.116;21.296;2022-11-30T14:45:32;281.70;2278.40
55008;DHT22;40902;45.116;21.296;2022-11-30T14:48:08;281.60;2278.40
55008;DHT22;40902;45.116;21.296;2022-11-30T14:50:36;281.60;2278.40
55008;DHT22;40902;45.116;21.296;2022-11-30T14:58:52;256.90;2252.80
55008;DHT22;40902;45.116;21.296;2022-11-30T15:01:24;256.80;2252.80
55008;DHT22;40902;45.116;21.296;2022-11-30T15:03:53;256.70;2252.80
55008;DHT22;40902;45.116;21.296;2022-11-30T15:06:22;256.80;2252.80
55008;DHT22;40902;45.116;21.296;2022-11-30T15:08:53;256.70;2252.80
55008;DHT22;40902;45.116;21.296;2022-11-30T15:11:20;256.70;2252.80
55008;DHT22;40902;45.116;21.296;2022-11-30T15:14:05;256.60;2252.80
55008;DHT22;40902;45.116;21.296;2022-11-30T15:16:31;256.60;2252.80
55008;DHT22;40902;45.116;21.296;2022-11-30T15:18:58;256.50;2252.80
55008;DHT22;40902;45.116;21.296;2022-11-30T15:21:29;256.50;2252.80
55008;DHT22;40902;45.116;21.296;2022-11-30T15:23:57;256.40;2252.80
55008;DHT22;40902;45.116;21.296;2022-11-30T15:26:28;256.40;2252.80
55008;DHT22;40902;45.116;21.296;2022-11-30T15:31:33;256.30;2252.80
55008;DHT22;40902;45.116;21.296;2022-11-30T15:34:00;256.30;2252.80
55008;DHT22;40902;45.116;21.296;2022-11-30T15:36:33;256.30;2252.80
55008;DHT22;40902;45.116;21.296;2022-11-30T15:39:02;256.30;2252.80
55008;DHT22;40902;45.116;21.296;2022-11-30T15:41:29;256.30;2252.80
55008;DHT22;40902;45.116;21.296;2022-11-30T15:43:56;256.20;2252.80
55008;DHT22;40902;45.116;21.296;2022-11-30T15:46:30;256.20;2252.80
55008;DHT22;40902;45.116;21.296;2022-11-30T15:51:44;256.20;2252.80
55008;DHT22;40902;45.116;21.296;2022-11-30T15:54:11;256.20;2252.80
55008;DHT22;40902;45.116;21.296;2022-11-30T15:56:37;256.20;2252.80
55008;DHT22;40902;45.116;21.296;2022-11-30T15:59:20;256.20;2252.80
55008;DHT22;40902;45.116;21.296;2022-11-30T16:01:55;256.10;2252.80
55008;DHT22;40902;45.116;21.296;2022-11-30T16:07:27;256.00;2252.80
55008;DHT22;40902;45.116;21.296;2022-11-30T16:10:14;256.10;2252.80
55008;DHT22;40902;45.116;21.296;2022-11-30T16:12:41;256.10;2252.80
55008;DHT22;40902;45.116;21.296;2022-11-30T16:15:30;256.10;2252.80
55008;DHT22;40902;45.116;21.296;2022-11-30T16:17:59;256.10;2252.80
55008;DHT22;40902;45.116;21.296;2022-11-30T16:20:25;256.00;2252.80
55008;DHT22;40902;45.116;21.296;2022-11-30T16:22:51;256.00;2252.80
55008;DHT22;40902;45.116;21.296;2022-11-30T16:25:19;256.00;2252.80
55008;DHT22;40902;45.116;21.296;2022-11-30T16:27:46;231.30;2252.80
55008;DHT22;40902;45.116;21.296;2022-11-30T16:30:20;231.30;2252.80
55008;DHT22;40902;45.116;21.296;2022-11-30T16:32:46;231.20;2252.80
55008;DHT22;40902;45.116;21.296;2022-11-30T16:35:24;231.20;2252.80
55008;DHT22;40902;45.116;21.296;2022-11-30T16:37:51;231.10;2252.80
55008;DHT22;40902;45.116;21.296;2022-11-30T16:40:17;231.10;2252.80
55008;DHT22;40902;45.116;21.296;2022-11-30T16:42:43;231.00;2252.80
55008;DHT22;40902;45.116;21.296;2022-11-30T16:45:16;231.00;2252.80
55008;DHT22;40902;45.116;21.296;2022-11-30T16:47:43;231.00;2252.80
55008;DHT22;40902;45.116;21.296;2022-11-30T16:50:10;231.00;2252.80
55008;DHT22;40902;45.116;21.296;2022-11-30T16:52:37;231.00;2252.80
55008;DHT22;40902;45.116;21.296;2022-11-30T16:55:08;230.90;2252.80
55008;DHT22;40902;45.116;21.296;2022-11-30T16:57:34;230.90;2252.80
55008;DHT22;40902;45.116;21.296;2022-11-30T16:59:59;230.90;2252.80
55008;DHT22;40902;45.116;21.296;2022-11-30T17:02:25;230.80;2252.80
55008;DHT22;40902;45.116;21.296;2022-11-30T17:04:52;230.80;2252.80